sensor_id;sensor_type;location;lat;lon;timestamp;temperature;humidity
11379;DHT22;5744;59.392;16.748;2022-12-18T04:58:07;1.00;99.90
11379;DHT22;5744;59.392;16.748;2022-12-18T05:00:36;1.10;99.90
11379;DHT22;5744;59.392;16.748;2022-12-18T05:03:04;1.20;99.90
11379;DHT22;5744;59.392;16.748;2022-12-18T05:05:34;1.20;99.90
11379;DHT22;5744;59.392;16.748;2022-12-18T05:08:02;1.20;99.90
11379;DHT22;5744;59.392;16.748;2022-12-18T05:10:31;1.20;99.90
11379;DHT22;5744;59.392;16.748;2022-12-18T05:12:59;1.30;99.90
11379;DHT22;5744;59.392;16.748;2022-12-18T05:15:31;1.30;99.90
11379;DHT22;5744;59.392;16.748;2022-12-18T05:18:00;1.30;99.90
11379;DHT22;5744;59.392;16.748;2022-12-18T05:20:30;1.20;99.90
11379;DHT22;5744;59.392;16.748;2022-12-18T05:22:59;1.20;99.90
11379;DHT22;5744;59.392;16.748;2022-12-18T05:25:27;1.30;99.90
11379;DHT22;5744;59.392;16.748;2022-12-18T05:27:56;1.20;99.90
11379;DHT22;5744;59.392;16.748;2022-12-18T05:30:24;1.30;99.90
11379;DHT22;5744;59.392;16.748;2022-12-18T05:32:55;1.20;99.90
11379;DHT22;5744;59.392;16.748;2022-12-18T05:35:24;1.20;99.90
11379;DHT22;5744;59.392;16.748;2022-12-18T05:37:52;1.20;99.90
11379;DHT22;5744;59.392;16.748;2022-12-18T05:40:21;1.20;99.90
11379;DHT22;5744;59.392;16.748;2022-12-18T05:42:49;1.20;99.90
11379;DHT22;5744;59.392;16.748;2022-12-18T05:45:18;1.20;99.90
11379;DHT22;5744;59.392;16.748;2022-12-18T05:47:47;1.20;99.90
11379;DHT22;5744;59.392;16.748;2022-12-18T05:50:18;1.20;99.90
11379;DHT22;5744;59.392;16.748;2022-12-18T05:52:46;1.10;99.90
11379;DHT22;5744;59.392;16.748;2022-12-18T05:55:15;1.20;99.90
11379;DHT22;5744;59.392;16.748;2022-12-18T05:57:43;1.10;99.90
11379;DHT22;5744;59.392;16.748;2022-12-18T06:00:13;1.20;99.90
11379;DHT22;5744;59.392;16.748;2022-12-18T06:02:41;1.20;99.90
11379;DHT22;5744;59.392;16.748;2022-12-18T06:05:10;1.20;99.90
11379;DHT22;5744;59.392;16.748;2022-12-18T06:07:41;1.10;99.90
11379;DHT22;5744;59.392;16.748;2022-12-18T06:10:10;1.10;99.90
11379;DHT22;5744;59.392;16.748;2022-12-18T06:12:39;1.10;99.90
11379;DHT22;5744;59.392;16.748;2022-12-18T06:15:08;1.10;99.90
11379;DHT22;5744;59.392;16.748;2022-12-18T06:17:36;1.10;99.90
11379;DHT22;5744;59.392;16.748;2022-12-18T06:20:06;1.10;99.90
11379;DHT22;5744;59.392;16.748;2022-12-18T06:22:34;1.10;99.90
11379;DHT22;5744;59.392;16.748;2022-12-18T06:25:06;1.10;99.90
11379;DHT22;5744;59.392;16.748;2022-12-18T06:27:35;1.10;99.90
11379;DHT22;5744;59.392;16.748;2022-12-18T06:30:04;1.20;99.90
11379;DHT22;5744;59.392;16.748;2022-12-18T06:32:33;1.20;99.90
11379;DHT22;5744;59.392;16.748;2022-12-18T06:35:01;1.20;99.90
11379;DHT22;5744;59.392;16.748;2022-12-18T06:37:30;1.20;99.90
11379;DHT22;5744;59.392;16.748;2022-12-18T06:39:59;1.10;99.90
11379;DHT22;5744;59.392;16.748;2022-12-18T06:42:30;1.10;99.90
11379;DHT22;5744;59.392;16.748;2022-12-18T06:44:59;1.10;99.90
11379;DHT22;5744;59.392;16.748;2022-12-18T06:47:27;1.10;99.90
11379;DHT22;5744;59.392;16.748;2022-12-18T06:49:56;1.10;99.90
11379;DHT22;5744;59.392;16.748;2022-12-18T06:52:24;1.10;99.90
11379;DHT22;5744;59.392;16.748;2022-12-18T06:54:53;1.20;99.90
11379;DHT22;5744;59.392;16.748;2022-12-18T06:57:22;1.20;99.90
11379;DHT22;5744;59.392;16.748;2022-12-18T06:59:53;1.20;99.90
11379;DHT22;5744;59.392;16.748;2022-12-18T07:02:21;1.30;99.90
11379;DHT22;5744;59.392;16.748;2022-12-18T07:04:50;1.30;99.90
11379;DHT22;5744;59.392;16.748;2022-12-18T07:07:18;1.30;99.90
11379;DHT22;5744;59.392;16.748;2022-12-18T07:09:48;1.30;99.90
11379;DHT22;5744;59.392;16.748;2022-12-18T07:12:17;1.30;99.90
11379;DHT22;5744;59.392;16.748;2022-12-18T07:14:46;1.40;99.90
11379;DHT22;5744;59.392;16.748;2022-12-18T07:17:17;1.40;99.90
11379;DHT22;5744;59.392;16.748;2022-12-18T07:19:45;1.30;99.90
11379;DHT22;5744;59.392;16.748;2022-12-18T07:22:14;1.40;99.90
11379;DHT22;5744;59.392;16.748;2022-12-18T07:24:42;1.40;99.90
11379;DHT22;5744;59.392;16.748;2022-12-18T07:27:11;1.40;99.90
11379;DHT22;5744;59.392;16.748;2022-12-18T07:29:39;1.50;99.90
11379;DHT22;5744;59.392;16.748;2022-12-18T07:32:08;1.50;99.90
11379;DHT22;5744;59.392;16.748;2022-12-18T07:34:39;1.60;99.90
11379;DHT22;5744;59.392;16.748;2022-12-18T07:37:08;1.50;99.90
11379;DHT22;5744;59.392;16.748;2022-12-18T07:39:36;1.50;99.90
11379;DHT22;5744;59.392;16.748;2022-12-18T07:42:05;1.50;99.90
11379;DHT22;5744;59.392;16.748;2022-12-18T07:44:46;1.60;99.90
11379;DHT22;5744;59.392;16.748;2022-12-18T13:55:16;3.60;99.90
11379;DHT22;5744;59.392;16.748;2022-12-18T13:57:46;3.70;99.90
11379;DHT22;5744;59.392;16.748;2022-12-18T14:00:23;3.70;99.90
11379;DHT22;5744;59.392;16.748;2022-12-18T14:02:54;3.70;99.90
11379;DHT22;5744;59.392;16.748;2022-12-18T14:05:23;3.80;99.90
11379;DHT22;5744;59.392;16.748;2022-12-18T14:07:51;3.80;99.90
11379;DHT22;5744;59.392;16.748;2022-12-18T14:10:23;3.90;99.90
11379;DHT22;5744;59.392;16.748;2022-12-18T14:12:52;3.90;99.90
11379;DHT22;5744;59.392;16.748;2022-12-18T14:15:30;3.90;99.90
11379;DHT22;5744;59.392;16.748;2022-12-18T14:17:59;4.00;99.90
11379;DHT22;5744;59.392;16.748;2022-12-18T14:20:29;4.00;99.90
11379;DHT22;5744;59.392;16.748;2022-12-18T14:22:59;4.00;99.90
11379;DHT22;5744;59.392;16.748;2022-12-18T14:25:30;3.90;99.90
11379;DHT22;5744;59.392;16.748;2022-12-18T14:28:02;4.00;99.90
11379;DHT22;5744;59.392;16.748;2022-12-18T14:30:32;3.90;99.90
11379;DHT22;5744;59.392;16.748;2022-12-18T14:33:01;3.90;99.90
11379;DHT22;5744;59.392;16.748;2022-12-18T14:35:30;3.90;99.90
11379;DHT22;5744;59.392;16.748;2022-12-18T14:38:10;3.90;99.90
11379;DHT22;5744;59.392;16.748;2022-12-18T14:40:41;3.90;99.90
11379;DHT22;5744;59.392;16.748;2022-12-18T14:43:10;3.80;99.90
11379;DHT22;5744;59.392;16.748;2022-12-18T14:45:39;3.90;99.90
11379;DHT22;5744;59.392;16.748;2022-12-18T14:48:11;3.80;99.90
11379;DHT22;5744;59.392;16.748;2022-12-18T14:50:42;3.90;99.90
11379;DHT22;5744;59.392;16.748;2022-12-18T14:53:18;3.90;99.90
11379;DHT22;5744;59.392;16.748;2022-12-18T14:55:51;3.80;99.90
11379;DHT22;5744;59.392;16.748;2022-12-18T14:58:19;3.90;99.90
11379;DHT22;5744;59.392;16.748;2022-12-18T15:00:48;3.90;99.90
11379;DHT22;5744;59.392;16.748;2022-12-18T15:03:17;3.90;99.90
11379;DHT22;5744;59.392;16.748;2022-12-18T15:05:47;3.80;99.90
11379;DHT22;5744;59.392;16.748;2022-12-18T15:08:28;3.90;99.90
11379;DHT22;5744;59.392;16.748;2022-12-18T15:11:00;3.90;99.90
11379;DHT22;5744;59.392;16.748;2022-12-18T15:13:28;4.00;99.90
11379;DHT22;5744;59.392;16.748;2022-12-18T15:15:57;3.90;99.90
11379;DHT22;5744;59.392;16.748;2022-12-18T15:18:30;3.80;99.90
11379;DHT22;5744;59.392;16.748;2022-12-18T15:21:06;3.80;99.90
11379;DHT22;5744;59.392;16.748;2022-12-18T15:23:36;3.70;99.90
11379;DHT22;5744;59.392;16.748;2022-12-18T15:26:09;3.70;99.90
11379;DHT22;5744;59.392;16.748;2022-12-18T15:28:39;3.70;99.90
11379;DHT22;5744;59.392;16.748;2022-12-18T15:31:21;3.80;99.90
11379;DHT22;5744;59.392;16.748;2022-12-18T15:34:00;3.80;99.90
11379;DHT22;5744;59.392;16.748;2022-12-18T15:36:29;3.80;99.90
11379;DHT22;5744;59.392;16.748;2022-12-18T15:39:02;3.70;99.90
11379;DHT22;5744;59.392;16.748;2022-12-18T15:41:34;3.70;99.90
11379;DHT22;5744;59.392;16.748;2022-12-18T15:44:03;3.70;99.90
11379;DHT22;5744;59.392;16.748;2022-12-18T15:46:42;3.80;99.90
11379;DHT22;5744;59.392;16.748;2022-12-18T15:49:11;3.70;99.90
11379;DHT22;5744;59.392;16.748;2022-12-18T15:51:39;3.70;99.90
11379;DHT22;5744;59.392;16.748;2022-12-18T15:54:09;3.70;99.90
11379;DHT22;5744;59.392;16.748;2022-12-18T15:56:42;3.70;99.90
11379;DHT22;5744;59.392;16.748;2022-12-18T15:59:23;3.60;99.90
11379;DHT22;5744;59.392;16.748;2022-12-18T16:01:52;3.70;99.90
11379;DHT22;5744;59.392;16.748;2022-12-18T16:04:21;3.60;99.90
11379;DHT22;5744;59.392;16.748;2022-12-18T16:06:51;3.60;99.90
11379;DHT22;5744;59.392;16.748;2022-12-18T16:09:19;3.60;99.90
11379;DHT22;5744;59.392;16.748;2022-12-18T16:11:51;3.50;99.90
11379;DHT22;5744;59.392;16.748;2022-12-18T16:14:20;3.50;99.90
11379;DHT22;5744;59.392;16.748;2022-12-18T16:16:50;3.40;99.90
11379;DHT22;5744;59.392;16.748;2022-12-18T16:19:18;3.40;99.90
11379;DHT22;5744;59.392;16.748;2022-12-18T16:21:47;3.40;99.90
11379;DHT22;5744;59.392;16.748;2022-12-18T16:24:17;3.30;99.90
11379;DHT22;5744;59.392;16.748;2022-12-18T16:26:47;3.40;99.90
11379;DHT22;5744;59.392;16.748;2022-12-18T16:29:19;3.40;99.90
11379;DHT22;5744;59.392;16.748;2022-12-18T16:31:52;3.40;99.90
11379;DHT22;5744;59.392;16.748;2022-12-18T16:34:21;3.30;99.90
11379;DHT22;5744;59.392;16.748;2022-12-18T16:36:52;3.30;99.90
11379;DHT22;5744;59.392;16.748;2022-12-18T16:39:20;3.30;99.90
11379;DHT22;5744;59.392;16.748;2022-12-18T16:41:49;3.30;99.90
11379;DHT22;5744;59.392;16.748;2022-12-18T16:44:20;3.20;99.90
11379;DHT22;5744;59.392;16.748;2022-12-18T16:46:49;3.10;99.90
11379;DHT22;5744;59.392;16.748;2022-12-18T16:49:18;3.00;99.90
11379;DHT22;5744;59.392;16.748;2022-12-18T16:51:47;2.90;99.90
11379;DHT22;5744;59.392;16.748;2022-12-18T16:54:15;2.90;99.90
11379;DHT22;5744;59.392;16.748;2022-12-18T16:56:44;2.90;99.90
11379;DHT22;5744;59.392;16.748;2022-12-18T16:59:14;2.80;99.90
11379;DHT22;5744;59.392;16.748;2022-12-18T17:01:45;2.80;99.90
11379;DHT22;5744;59.392;16.748;2022-12-18T17:04:14;2.70;99.90
11379;DHT22;5744;59.392;16.748;2022-12-18T17:06:44;2.80;99.90
11379;DHT22;5744;59.392;16.748;2022-12-18T17:09:16;2.70;99.90
11379;DHT22;5744;59.392;16.748;2022-12-18T17:11:45;2.70;99.90
11379;DHT22;5744;59.392;16.748;2022-12-18T17:14:14;2.80;99.90
11379;DHT22;5744;59.392;16.748;2022-12-18T17:16:46;2.70;99.90
11379;DHT22;5744;59.392;16.748;2022-12-18T17:19:15;2.70;99.90
11379;DHT22;5744;59.392;16.748;2022-12-18T17:21:44;2.70;99.90
11379;DHT22;5744;59.392;16.748;2022-12-18T17:24:14;2.60;99.90
11379;DHT22;5744;59.392;16.748;2022-12-18T17:26:43;2.70;99.90
11379;DHT22;5744;59.392;16.748;2022-12-18T17:29:13;2.70;99.90
11379;DHT22;5744;59.392;16.748;2022-12-18T17:31:41;2.60;99.90
11379;DHT22;5744;59.392;16.748;2022-12-18T17:34:13;2.50;99.90
11379;DHT22;5744;59.392;16.748;2022-12-18T17:36:42;2.40;99.90
11379;DHT22;5744;59.392;16.748;2022-12-18T17:39:15;2.50;99.90
11379;DHT22;5744;59.392;16.748;2022-12-18T17:41:44;2.50;99.90
11379;DHT22;5744;59.392;16.748;2022-12-18T17:44:13;2.40;99.90
11379;DHT22;5744;59.392;16.748;2022-12-18T17:46:42;2.50;99.90
11379;DHT22;5744;59.392;16.748;2022-12-18T17:49:13;2.40;99.90
11379;DHT22;5744;59.392;16.748;2022-12-18T17:51:43;2.50;99.90
11379;DHT22;5744;59.392;16.748;2022-12-18T17:54:12;2.60;99.90
11379;DHT22;5744;59.392;16.748;2022-12-18T17:56:41;2.60;99.90
11379;DHT22;5744;59.392;16.748;2022-12-18T17:59:09;2.50;99.90
11379;DHT22;5744;59.392;16.748;2022-12-18T18:01:38;2.50;99.90
11379;DHT22;5744;59.392;16.748;2022-12-18T18:04:07;2.40;99.90
11379;DHT22;5744;59.392;16.748;2022-12-18T18:06:38;2.40;99.90
11379;DHT22;5744;59.392;16.748;2022-12-18T18:09:06;2.30;99.90
11379;DHT22;5744;59.392;16.748;2022-12-18T18:11:35;2.30;99.90
11379;DHT22;5744;59.392;16.748;2022-12-18T18:14:22;2.30;99.90
11379;DHT22;5744;59.392;16.748;2022-12-18T18:16:51;2.20;99.90
11379;DHT22;5744;59.392;16.748;2022-12-18T18:19:20;2.20;99.90
11379;DHT22;5744;59.392;16.748;2022-12-18T18:21:52;2.20;99.90
11379;DHT22;5744;59.392;16.748;2022-12-18T18:24:21;2.10;99.90
11379;DHT22;5744;59.392;16.748;2022-12-18T18:26:50;2.10;99.90
11379;DHT22;5744;59.392;16.748;2022-12-18T18:29:24;2.00;99.90
11379;DHT22;5744;59.392;16.748;2022-12-18T18:31:54;2.10;99.90
11379;DHT22;5744;59.392;16.748;2022-12-18T18:34:23;2.00;99.90
11379;DHT22;5744;59.392;16.748;2022-12-18T18:37:02;2.00;99.90
11379;DHT22;5744;59.392;16.748;2022-12-18T18:39:30;2.00;99.90
11379;DHT22;5744;59.392;16.748;2022-12-18T18:41:59;2.10;99.90
11379;DHT22;5744;59.392;16.748;2022-12-18T18:44:27;2.00;99.90
11379;DHT22;5744;59.392;16.748;2022-12-18T18:46:56;2.00;99.90
11379;DHT22;5744;59.392;16.748;2022-12-18T18:49:25;2.10;99.90
11379;DHT22;5744;59.392;16.748;2022-12-18T18:51:58;2.20;99.90
11379;DHT22;5744;59.392;16.748;2022-12-18T18:54:27;2.10;99.90
11379;DHT22;5744;59.392;16.748;2022-12-18T18:56:55;2.00;99.90
11379;DHT22;5744;59.392;16.748;2022-12-18T18:59:24;2.00;99.90
11379;DHT22;5744;59.392;16.748;2022-12-18T19:01:54;1.90;99.90
11379;DHT22;5744;59.392;16.748;2022-12-18T19:04:22;1.90;99.90
11379;DHT22;5744;59.392;16.748;2022-12-18T19:06:51;1.90;99.90
11379;DHT22;5744;59.392;16.748;2022-12-18T19:09:22;1.90;99.90
11379;DHT22;5744;59.392;16.748;2022-12-18T19:11:51;1.80;99.90
11379;DHT22;5744;59.392;16.748;2022-12-18T19:14:32;1.70;99.90
11379;DHT22;5744;59.392;16.748;2022-12-18T19:17:00;1.70;99.90
11379;DHT22;5744;59.392;16.748;2022-12-18T19:19:29;1.60;99.90
11379;DHT22;5744;59.392;16.748;2022-12-18T19:21:57;1.70;99.90
11379;DHT22;5744;59.392;16.748;2022-12-18T19:24:29;1.70;99.90
11379;DHT22;5744;59.392;16.748;2022-12-18T19:26:57;1.70;99.90
11379;DHT22;5744;59.392;16.748;2022-12-18T19:29:26;1.60;99.90
11379;DHT22;5744;59.392;16.748;2022-12-18T19:31:54;1.60;99.90
11379;DHT22;5744;59.392;16.748;2022-12-18T19:34:23;1.70;99.90
11379;DHT22;5744;59.392;16.748;2022-12-18T19:36:52;1.70;99.90
11379;DHT22;5744;59.392;16.748;2022-12-18T19:39:20;1.70;99.90
11379;DHT22;5744;59.392;16.748;2022-12-18T19:41:51;1.70;99.90
11379;DHT22;5744;59.392;16.748;2022-12-18T19:44:20;1.70;99.90
11379;DHT22;5744;59.392;16.748;2022-12-18T19:46:48;1.70;99.90
11379;DHT22;5744;59.392;16.748;2022-12-18T19:49:17;1.70;99.90
11379;DHT22;5744;59.392;16.748;2022-12-18T19:51:45;1.80;99.90
11379;DHT22;5744;59.392;16.748;2022-12-18T19:54:14;1.70;99.90
11379;DHT22;5744;59.392;16.748;2022-12-18T19:56:43;1.70;99.90
11379;DHT22;5744;59.392;16.748;2022-12-18T19:59:14;1.70;99.90
11379;DHT22;5744;59.392;16.748;2022-12-18T20:01:43;1.70;99.90
11379;DHT22;5744;59.392;16.748;2022-12-18T20:04:11;1.70;99.90
11379;DHT22;5744;59.392;16.748;2022-12-18T20:06:46;1.60;99.90
11379;DHT22;5744;59.392;16.748;2022-12-18T20:09:15;1.60;99.90
11379;DHT22;5744;59.392;16.748;2022-12-18T20:11:43;1.60;99.90
11379;DHT22;5744;59.392;16.748;2022-12-18T20:14:15;1.50;99.90
11379;DHT22;5744;59.392;16.748;2022-12-18T20:16:43;1.50;99.90
11379;DHT22;5744;59.392;16.748;2022-12-18T20:19:12;1.50;99.90
11379;DHT22;5744;59.392;16.748;2022-12-18T20:21:41;1.60;99.90
11379;DHT22;5744;59.392;16.748;2022-12-18T20:24:09;1.70;99.90
11379;DHT22;5744;59.392;16.748;2022-12-18T20:26:38;1.50;99.90
11379;DHT22;5744;59.392;16.748;2022-12-18T20:29:06;1.40;99.90
11379;DHT22;5744;59.392;16.748;2022-12-18T20:31:38;1.40;99.90
11379;DHT22;5744;59.392;16.748;2022-12-18T20:34:06;1.40;99.90
11379;DHT22;5744;59.392;16.748;2022-12-18T20:36:35;1.40;99.90
11379;DHT22;5744;59.392;16.748;2022-12-18T20:39:04;1.40;99.90
11379;DHT22;5744;59.392;16.748;2022-12-18T20:41:33;1.30;99.90
11379;DHT22;5744;59.392;16.748;2022-12-18T20:44:01;1.40;99.90
11379;DHT22;5744;59.392;16.748;2022-12-18T20:46:30;1.40;99.90
11379;DHT22;5744;59.392;16.748;2022-12-18T20:49:01;1.50;99.90
11379;DHT22;5744;59.392;16.748;2022-12-18T20:51:30;1.50;99.90
11379;DHT22;5744;59.392;16.748;2022-12-18T20:53:59;1.40;99.90
11379;DHT22;5744;59.392;16.748;2022-12-18T20:56:28;1.40;99.90
11379;DHT22;5744;59.392;16.748;2022-12-18T20:58:58;1.40;99.90
